sensor_id;sensor_type;location;lat;lon;timestamp;pressure;altitude;pressure_sealevel;temperature;humidity
63194;BME280;49289;51.670;5.624;2023-04-02T00:00:11;101225.98;;;13.51;64.23
63194;BME280;49289;51.670;5.624;2023-04-02T00:01:51;101230.07;;;13.66;64.36
63194;BME280;49289;51.670;5.624;2023-04-02T00:05:49;101237.41;;;13.32;64.98
63194;BME280;49289;51.670;5.624;2023-04-02T00:07:37;101227.51;;;13.24;64.91
63194;BME280;49289;51.670;5.624;2023-04-02T00:09:35;101228.16;;;12.80;65.32
63194;BME280;49289;51.670;5.624;2023-04-02T00:11:24;101253.97;;;12.60;66.16
63194;BME280;49289;51.670;5.624;2023-04-02T00:13:19;101235.14;;;12.58;66.65
63194;BME280;49289;51.670;5.624;2023-04-02T00:15:07;101236.63;;;13.09;65.44
63194;BME280;49289;51.670;5.624;2023-04-02T00:16:54;101257.53;;;13.09;64.91
63194;BME280;49289;51.670;5.624;2023-04-02T00:18:43;101259.67;;;13.23;64.70
63194;BME280;49289;51.670;5.624;2023-04-02T00:20:31;101260.36;;;13.28;64.57
63194;BME280;49289;51.670;5.624;2023-04-02T00:22:18;101249.59;;;12.63;65.20
63194;BME280;49289;51.670;5.624;2023-04-02T00:24:08;101267.39;;;12.79;65.46
63194;BME280;49289;51.670;5.624;2023-04-02T00:25:53;101268.84;;;12.97;65.12
63194;BME280;49289;51.670;5.624;2023-04-02T00:27:42;101270.25;;;13.33;64.42
63194;BME280;49289;51.670;5.624;2023-04-02T00:29:30;101274.16;;;13.08;64.74
63194;BME280;49289;51.670;5.624;2023-04-02T00:31:20;101251.67;;;13.13;64.44
63194;BME280;49289;51.670;5.624;2023-04-02T00:33:10;101275.13;;;13.38;64.00
63194;BME280;49289;51.670;5.624;2023-04-02T00:34:55;101285.65;;;13.60;63.65
63194;BME280;49289;51.670;5.624;2023-04-02T00:36:44;101287.54;;;13.57;63.49
63194;BME280;49289;51.670;5.624;2023-04-02T00:38:32;101287.75;;;13.02;64.22
63194;BME280;49289;51.670;5.624;2023-04-02T00:40:21;101295.69;;;12.45;65.24
63194;BME280;49289;51.670;5.624;2023-04-02T00:42:09;101302.13;;;12.56;65.25
63194;BME280;49289;51.670;5.624;2023-04-02T00:43:57;101305.50;;;12.54;65.44
63194;BME280;49289;51.670;5.624;2023-04-02T00:45:45;101304.39;;;12.89;65.31
63194;BME280;49289;51.670;5.624;2023-04-02T00:47:34;101309.61;;;12.94;64.63
63194;BME280;49289;51.670;5.624;2023-04-02T00:49:24;101314.25;;;12.54;65.30
63194;BME280;49289;51.670;5.624;2023-04-02T00:51:13;101295.30;;;12.66;65.22
63194;BME280;49289;51.670;5.624;2023-04-02T00:53:02;101310.44;;;12.68;65.08
63194;BME280;49289;51.670;5.624;2023-04-02T00:54:50;101316.80;;;12.80;64.80
63194;BME280;49289;51.670;5.624;2023-04-02T00:56:38;101322.16;;;12.74;64.38
63194;BME280;49289;51.670;5.624;2023-04-02T00:58:27;101300.66;;;12.79;64.71
63194;BME280;49289;51.670;5.624;2023-04-02T01:00:27;101321.56;;;12.76;64.68
63194;BME280;49289;51.670;5.624;2023-04-02T01:02:25;101324.74;;;13.06;64.41
63194;BME280;49289;51.670;5.624;2023-04-02T01:04:24;101311.39;;;13.20;63.73
63194;BME280;49289;51.670;5.624;2023-04-02T01:06:10;101341.25;;;12.78;64.09
63194;BME280;49289;51.670;5.624;2023-04-02T01:08:05;101346.39;;;12.85;64.17
63194;BME280;49289;51.670;5.624;2023-04-02T01:10:07;101352.13;;;12.78;64.72
63194;BME280;49289;51.670;5.624;2023-04-02T01:12:18;101359.33;;;12.83;64.42
63194;BME280;49289;51.670;5.624;2023-04-02T01:14:05;101334.94;;;12.31;64.64
63194;BME280;49289;51.670;5.624;2023-04-02T01:15:52;101353.47;;;12.69;64.76
63194;BME280;49289;51.670;5.624;2023-04-02T01:17:58;101344.02;;;12.58;64.66
63194;BME280;49289;51.670;5.624;2023-04-02T01:21:55;101367.11;;;12.37;64.75
63194;BME280;49289;51.670;5.624;2023-04-02T01:23:47;101373.31;;;12.28;65.19
63194;BME280;49289;51.670;5.624;2023-04-02T01:25:35;101354.63;;;12.29;64.57
63194;BME280;49289;51.670;5.624;2023-04-02T01:27:25;101374.17;;;12.50;64.43
63194;BME280;49289;51.670;5.624;2023-04-02T01:29:14;101378.87;;;12.80;64.20
63194;BME280;49289;51.670;5.624;2023-04-02T01:31:01;101377.62;;;13.12;63.45
63194;BME280;49289;51.670;5.624;2023-04-02T01:32:49;101382.36;;;13.15;63.18
63194;BME280;49289;51.670;5.624;2023-04-02T01:34:37;101377.02;;;13.34;62.73
63194;BME280;49289;51.670;5.624;2023-04-02T01:36:26;101385.70;;;12.90;62.89
63194;BME280;49289;51.670;5.624;2023-04-02T01:38:12;101387.72;;;12.84;62.78
63194;BME280;49289;51.670;5.624;2023-04-02T01:40:05;101393.90;;;12.81;63.10
63194;BME280;49289;51.670;5.624;2023-04-02T01:41:54;101399.27;;;12.99;62.76
63194;BME280;49289;51.670;5.624;2023-04-02T01:43:42;101379.83;;;12.43;63.38
63194;BME280;49289;51.670;5.624;2023-04-02T01:45:28;101384.79;;;12.78;63.23
63194;BME280;49289;51.670;5.624;2023-04-02T01:47:16;101407.56;;;12.86;62.80
63194;BME280;49289;51.670;5.624;2023-04-02T01:49:03;101406.87;;;12.92;62.64
63194;BME280;49289;51.670;5.624;2023-04-02T01:50:50;101396.30;;;12.25;63.66
63194;BME280;49289;51.670;5.624;2023-04-02T01:52:41;101411.47;;;12.35;63.78
63194;BME280;49289;51.670;5.624;2023-04-02T01:54:28;101411.03;;;12.08;63.71
63194;BME280;49289;51.670;5.624;2023-04-02T01:56:15;101405.80;;;12.41;63.64
63194;BME280;49289;51.670;5.624;2023-04-02T01:58:02;101425.44;;;12.39;63.16
63194;BME280;49289;51.670;5.624;2023-04-02T01:59:49;101427.56;;;12.55;62.93
63194;BME280;49289;51.670;5.624;2023-04-02T02:01:37;101437.86;;;12.45;63.33
63194;BME280;49289;51.670;5.624;2023-04-02T02:03:23;101435.03;;;11.79;64.25
63194;BME280;49289;51.670;5.624;2023-04-02T02:05:15;101436.11;;;12.15;63.58
63194;BME280;49289;51.670;5.624;2023-04-02T02:07:01;101424.20;;;12.12;63.43
63194;BME280;49289;51.670;5.624;2023-04-02T02:08:50;101444.93;;;12.28;62.64
63194;BME280;49289;51.670;5.624;2023-04-02T02:10:37;101453.59;;;12.27;62.75
63194;BME280;49289;51.670;5.624;2023-04-02T02:12:24;101432.41;;;11.58;63.41
63194;BME280;49289;51.670;5.624;2023-04-02T02:14:13;101450.63;;;11.66;63.66
63194;BME280;49289;51.670;5.624;2023-04-02T02:16:02;101438.41;;;11.93;63.60
63194;BME280;49289;51.670;5.624;2023-04-02T02:17:48;101465.03;;;11.42;64.01
63194;BME280;49289;51.670;5.624;2023-04-02T02:19:37;101469.44;;;11.52;64.15
63194;BME280;49289;51.670;5.624;2023-04-02T02:21:28;101470.05;;;12.05;63.52
63194;BME280;49289;51.670;5.624;2023-04-02T02:23:14;101473.81;;;12.05;63.15
63194;BME280;49289;51.670;5.624;2023-04-02T02:25:03;101464.16;;;12.10;63.08
63194;BME280;49289;51.670;5.624;2023-04-02T02:27:00;101481.44;;;12.71;62.18
63194;BME280;49289;51.670;5.624;2023-04-02T02:28:38;101487.63;;;11.87;63.13
63194;BME280;49289;51.670;5.624;2023-04-02T02:30:26;101483.03;;;12.25;63.03
63194;BME280;49289;51.670;5.624;2023-04-02T02:32:13;101488.33;;;12.52;62.47
63194;BME280;49289;51.670;5.624;2023-04-02T02:34:02;101495.61;;;12.23;62.42
63194;BME280;49289;51.670;5.624;2023-04-02T02:35:51;101481.62;;;12.26;62.45
63194;BME280;49289;51.670;5.624;2023-04-02T02:37:39;101494.98;;;12.29;62.53
63194;BME280;49289;51.670;5.624;2023-04-02T02:39:25;101481.61;;;12.01;62.34
63194;BME280;49289;51.670;5.624;2023-04-02T02:41:14;101493.52;;;11.73;63.37
63194;BME280;49289;51.670;5.624;2023-04-02T02:43:02;101508.61;;;12.08;63.40
63194;BME280;49289;51.670;5.624;2023-04-02T02:44:48;101493.41;;;11.85;62.99
63194;BME280;49289;51.670;5.624;2023-04-02T02:46:35;101496.55;;;11.93;63.30
63194;BME280;49289;51.670;5.624;2023-04-02T02:48:23;101516.62;;;12.55;62.64
63194;BME280;49289;51.670;5.624;2023-04-02T02:50:10;101527.16;;;12.53;62.15
63194;BME280;49289;51.670;5.624;2023-04-02T02:51:59;101508.03;;;11.65;63.35
63194;BME280;49289;51.670;5.624;2023-04-02T02:53:50;101538.07;;;11.95;63.43
63194;BME280;49289;51.670;5.624;2023-04-02T02:55:38;101538.71;;;12.22;62.91
63194;BME280;49289;51.670;5.624;2023-04-02T02:57:26;101538.42;;;11.84;63.24
63194;BME280;49289;51.670;5.624;2023-04-02T02:59:12;101538.72;;;11.69;63.32
63194;BME280;49289;51.670;5.624;2023-04-02T03:01:01;101520.92;;;12.11;63.05
63194;BME280;49289;51.670;5.624;2023-04-02T03:02:48;101524.61;;;11.88;62.35
63194;BME280;49289;51.670;5.624;2023-04-02T03:04:35;101531.02;;;12.07;62.73
63194;BME280;49289;51.670;5.624;2023-04-02T03:06:22;101551.43;;;12.34;62.16
63194;BME280;49289;51.670;5.624;2023-04-02T03:08:12;101548.76;;;11.93;62.06
63194;BME280;49289;51.670;5.624;2023-04-02T03:10:00;101563.89;;;12.00;62.75
63194;BME280;49289;51.670;5.624;2023-04-02T03:11:46;101559.73;;;11.70;63.64
63194;BME280;49289;51.670;5.624;2023-04-02T03:13:32;101562.93;;;11.83;63.09
63194;BME280;49289;51.670;5.624;2023-04-02T03:15:22;101543.20;;;11.68;63.04
63194;BME280;49289;51.670;5.624;2023-04-02T03:17:11;101545.17;;;12.34;62.09
63194;BME280;49289;51.670;5.624;2023-04-02T03:18:57;101554.02;;;11.93;61.90
63194;BME280;49289;51.670;5.624;2023-04-02T03:20:46;101571.71;;;12.19;62.05
63194;BME280;49289;51.670;5.624;2023-04-02T03:22:33;101573.67;;;11.59;62.78
63194;BME280;49289;51.670;5.624;2023-04-02T03:24:22;101577.61;;;11.58;63.13
63194;BME280;49289;51.670;5.624;2023-04-02T03:26:09;101583.34;;;11.37;63.29
63194;BME280;49289;51.670;5.624;2023-04-02T03:27:58;101562.53;;;11.17;63.37
63194;BME280;49289;51.670;5.624;2023-04-02T03:29:57;101598.06;;;11.62;63.43
63194;BME280;49289;51.670;5.624;2023-04-02T03:31:36;101573.88;;;11.92;62.43
63194;BME280;49289;51.670;5.624;2023-04-02T03:33:25;101602.66;;;11.83;62.59
63194;BME280;49289;51.670;5.624;2023-04-02T03:35:14;101606.92;;;11.97;62.10
63194;BME280;49289;51.670;5.624;2023-04-02T03:37:01;101604.89;;;11.28;62.79
63194;BME280;49289;51.670;5.624;2023-04-02T03:38:49;101612.27;;;11.54;63.13
63194;BME280;49289;51.670;5.624;2023-04-02T03:40:37;101611.08;;;11.62;62.73
63194;BME280;49289;51.670;5.624;2023-04-02T03:42:25;101621.44;;;11.50;62.80
63194;BME280;49289;51.670;5.624;2023-04-02T03:44:18;101627.88;;;11.48;62.80
63194;BME280;49289;51.670;5.624;2023-04-02T03:46:06;101631.44;;;11.47;62.87
63194;BME280;49289;51.670;5.624;2023-04-02T03:47:52;101637.26;;;11.26;63.20
63194;BME280;49289;51.670;5.624;2023-04-02T03:49:42;101644.19;;;11.19;63.84
63194;BME280;49289;51.670;5.624;2023-04-02T03:51:30;101650.09;;;11.89;62.60
63194;BME280;49289;51.670;5.624;2023-04-02T03:53:16;101655.34;;;11.23;63.26
63194;BME280;49289;51.670;5.624;2023-04-02T03:55:11;101641.27;;;11.41;63.04
63194;BME280;49289;51.670;5.624;2023-04-02T03:56:50;101663.04;;;11.34;62.65
63194;BME280;49289;51.670;5.624;2023-04-02T03:58:40;101637.59;;;11.14;62.86
63194;BME280;49289;51.670;5.624;2023-04-02T04:00:28;101672.73;;;11.80;62.45
63194;BME280;49289;51.670;5.624;2023-04-02T04:02:23;101674.88;;;11.78;62.06
63194;BME280;49289;51.670;5.624;2023-04-02T04:04:09;101677.27;;;11.83;61.48
63194;BME280;49289;51.670;5.624;2023-04-02T04:05:58;101687.26;;;11.54;62.00
63194;BME280;49289;51.670;5.624;2023-04-02T04:07:44;101687.69;;;11.40;62.00
63194;BME280;49289;51.670;5.624;2023-04-02T04:09:32;101687.02;;;11.59;61.72
63194;BME280;49289;51.670;5.624;2023-04-02T04:11:21;101694.58;;;12.02;61.07
63194;BME280;49289;51.670;5.624;2023-04-02T04:13:08;101693.73;;;12.19;60.42
63194;BME280;49289;51.670;5.624;2023-04-02T04:14:57;101697.20;;;11.57;61.09
63194;BME280;49289;51.670;5.624;2023-04-02T04:16:45;101681.53;;;11.39;61.86
63194;BME280;49289;51.670;5.624;2023-04-02T04:18:34;101710.02;;;11.85;61.41
63194;BME280;49289;51.670;5.624;2023-04-02T04:20:24;101707.80;;;11.92;61.11
63194;BME280;49289;51.670;5.624;2023-04-02T04:22:21;101711.81;;;11.78;60.70
63194;BME280;49289;51.670;5.624;2023-04-02T04:24:12;101718.12;;;11.93;60.70
63194;BME280;49289;51.670;5.624;2023-04-02T04:26:01;101710.94;;;11.80;60.26
63194;BME280;49289;51.670;5.624;2023-04-02T04:27:49;101707.39;;;11.25;60.51
63194;BME280;49289;51.670;5.624;2023-04-02T04:29:44;101729.67;;;11.43;61.29
63194;BME280;49289;51.670;5.624;2023-04-02T04:31:32;101738.58;;;11.64;60.68
63194;BME280;49289;51.670;5.624;2023-04-02T04:33:23;101737.62;;;11.21;61.04
63194;BME280;49289;51.670;5.624;2023-04-02T04:35:13;101747.80;;;11.83;60.67
63194;BME280;49289;51.670;5.624;2023-04-02T04:36:58;101752.09;;;11.35;61.37
63194;BME280;49289;51.670;5.624;2023-04-02T04:38:44;101753.25;;;11.83;60.83
63194;BME280;49289;51.670;5.624;2023-04-02T04:40:32;101740.91;;;11.38;60.83
63194;BME280;49289;51.670;5.624;2023-04-02T04:42:19;101744.72;;;11.03;61.27
63194;BME280;49289;51.670;5.624;2023-04-02T04:44:06;101769.14;;;11.10;61.13
63194;BME280;49289;51.670;5.624;2023-04-02T04:45:54;101774.20;;;10.81;61.70
63194;BME280;49289;51.670;5.624;2023-04-02T04:47:43;101776.17;;;10.90;61.41
63194;BME280;49289;51.670;5.624;2023-04-02T04:49:31;101764.06;;;10.89;61.62
63194;BME280;49289;51.670;5.624;2023-04-02T04:51:20;101764.48;;;10.80;61.18
63194;BME280;49289;51.670;5.624;2023-04-02T04:53:13;101788.17;;;10.74;61.39
63194;BME280;49289;51.670;5.624;2023-04-02T04:54:57;101780.06;;;11.01;61.02
63194;BME280;49289;51.670;5.624;2023-04-02T04:56:44;101793.16;;;11.07;60.93
63194;BME280;49289;51.670;5.624;2023-04-02T04:58:34;101781.47;;;10.95;60.44
63194;BME280;49289;51.670;5.624;2023-04-02T05:02:08;101787.62;;;10.86;60.90
63194;BME280;49289;51.670;5.624;2023-04-02T05:03:56;101814.28;;;11.43;60.58
63194;BME280;49289;51.670;5.624;2023-04-02T05:05:42;101800.47;;;11.20;60.00
63194;BME280;49289;51.670;5.624;2023-04-02T05:07:31;101820.03;;;11.53;59.56
63194;BME280;49289;51.670;5.624;2023-04-02T05:09:21;101827.38;;;11.55;59.67
63194;BME280;49289;51.670;5.624;2023-04-02T05:11:06;101830.45;;;11.49;59.84
63194;BME280;49289;51.670;5.624;2023-04-02T05:12:54;101828.62;;;11.63;59.33
63194;BME280;49289;51.670;5.624;2023-04-02T05:14:42;101799.44;;;11.42;59.35
63194;BME280;49289;51.670;5.624;2023-04-02T05:16:30;101830.13;;;11.51;58.91
63194;BME280;49289;51.670;5.624;2023-04-02T05:18:23;101808.52;;;11.68;59.29
63194;BME280;49289;51.670;5.624;2023-04-02T05:20:12;101817.36;;;11.41;59.55
63194;BME280;49289;51.670;5.624;2023-04-02T05:22:01;101834.41;;;11.85;59.35
63194;BME280;49289;51.670;5.624;2023-04-02T05:23:49;101845.66;;;11.78;58.93
63194;BME280;49289;51.670;5.624;2023-04-02T05:25:36;101839.19;;;11.86;59.05
63194;BME280;49289;51.670;5.624;2023-04-02T05:27:32;101843.69;;;11.99;58.89
63194;BME280;49289;51.670;5.624;2023-04-02T05:29:19;101858.85;;;11.70;59.18
63194;BME280;49289;51.670;5.624;2023-04-02T05:31:07;101857.59;;;11.56;59.37
63194;BME280;49289;51.670;5.624;2023-04-02T05:32:55;101860.39;;;11.88;59.22
63194;BME280;49289;51.670;5.624;2023-04-02T05:34:41;101863.21;;;11.25;59.94
63194;BME280;49289;51.670;5.624;2023-04-02T05:36:30;101873.83;;;11.69;59.75
63194;BME280;49289;51.670;5.624;2023-04-02T05:38:20;101852.05;;;11.54;59.40
63194;BME280;49289;51.670;5.624;2023-04-02T05:40:09;101856.34;;;11.50;59.02
63194;BME280;49289;51.670;5.624;2023-04-02T05:42:00;101877.12;;;11.51;58.73
63194;BME280;49289;51.670;5.624;2023-04-02T05:43:47;101884.23;;;11.26;59.04
63194;BME280;49289;51.670;5.624;2023-04-02T05:45:37;101864.18;;;11.20;58.99
63194;BME280;49289;51.670;5.624;2023-04-02T05:47:25;101855.95;;;11.55;58.82
63194;BME280;49289;51.670;5.624;2023-04-02T05:49:15;101888.38;;;11.60;58.52
63194;BME280;49289;51.670;5.624;2023-04-02T05:51:00;101889.99;;;11.73;58.34
63194;BME280;49289;51.670;5.624;2023-04-02T05:52:48;101876.94;;;10.73;58.95
63194;BME280;49289;51.670;5.624;2023-04-02T05:54:36;101900.59;;;11.04;59.12
63194;BME280;49289;51.670;5.624;2023-04-02T05:56:22;101908.11;;;10.83;59.00
63194;BME280;49289;51.670;5.624;2023-04-02T05:58:11;101903.97;;;10.94;59.45
63194;BME280;49289;51.670;5.624;2023-04-02T05:59:59;101914.09;;;10.58;59.54
63194;BME280;49289;51.670;5.624;2023-04-02T06:01:48;101902.31;;;10.61;59.03
63194;BME280;49289;51.670;5.624;2023-04-02T06:03:37;101924.30;;;10.84;59.28
63194;BME280;49289;51.670;5.624;2023-04-02T06:05:24;101910.45;;;10.83;59.30
63194;BME280;49289;51.670;5.624;2023-04-02T06:07:12;101936.30;;;10.90;58.75
63194;BME280;49289;51.670;5.624;2023-04-02T06:09:02;101926.21;;;10.58;59.28
63194;BME280;49289;51.670;5.624;2023-04-02T06:10:49;101929.34;;;11.27;58.66
63194;BME280;49289;51.670;5.624;2023-04-02T06:12:40;101947.33;;;11.17;58.08
63194;BME280;49289;51.670;5.624;2023-04-02T06:14:27;101956.59;;;10.51;58.03
63194;BME280;49289;51.670;5.624;2023-04-02T06:16:15;101957.66;;;11.04;58.09
63194;BME280;49289;51.670;5.624;2023-04-02T06:18:04;101953.98;;;10.44;57.92
63194;BME280;49289;51.670;5.624;2023-04-02T06:19:51;101966.25;;;10.86;58.26
63194;BME280;49289;51.670;5.624;2023-04-02T06:21:39;101964.84;;;10.74;57.93
63194;BME280;49289;51.670;5.624;2023-04-02T06:23:27;101959.44;;;11.25;57.35
63194;BME280;49289;51.670;5.624;2023-04-02T06:25:16;101952.38;;;11.31;57.48
63194;BME280;49289;51.670;5.624;2023-04-02T06:27:03;101953.40;;;11.07;57.81
63194;BME280;49289;51.670;5.624;2023-04-02T06:28:51;101977.52;;;11.32;57.81
63194;BME280;49289;51.670;5.624;2023-04-02T06:30:37;101970.27;;;10.42;57.65
63194;BME280;49289;51.670;5.624;2023-04-02T06:32:23;101992.87;;;10.33;57.99
63194;BME280;49289;51.670;5.624;2023-04-02T06:34:12;101985.37;;;11.15;57.58
63194;BME280;49289;51.670;5.624;2023-04-02T06:35:57;101991.16;;;10.84;57.09
63194;BME280;49289;51.670;5.624;2023-04-02T06:37:44;101982.56;;;10.71;57.39
63194;BME280;49289;51.670;5.624;2023-04-02T06:39:31;102005.80;;;10.68;57.49
63194;BME280;49289;51.670;5.624;2023-04-02T06:41:20;102007.11;;;10.78;57.86
63194;BME280;49289;51.670;5.624;2023-04-02T06:43:07;101991.84;;;9.71;58.22
63194;BME280;49289;51.670;5.624;2023-04-02T06:44:53;101994.48;;;10.65;57.84
63194;BME280;49289;51.670;5.624;2023-04-02T06:46:41;102015.27;;;10.64;57.69
63194;BME280;49289;51.670;5.624;2023-04-02T06:48:28;102025.19;;;10.79;57.63
63194;BME280;49289;51.670;5.624;2023-04-02T06:50:18;102024.70;;;11.16;56.91
63194;BME280;49289;51.670;5.624;2023-04-02T06:52:05;102012.45;;;10.52;57.47
63194;BME280;49289;51.670;5.624;2023-04-02T06:53:51;102013.52;;;10.56;56.63
63194;BME280;49289;51.670;5.624;2023-04-02T06:55:40;102037.53;;;10.26;56.45
63194;BME280;49289;51.670;5.624;2023-04-02T06:57:26;102029.14;;;9.56;56.97
63194;BME280;49289;51.670;5.624;2023-04-02T06:59:13;102045.48;;;10.22;57.30
63194;BME280;49289;51.670;5.624;2023-04-02T07:01:01;102055.23;;;10.20;57.27
63194;BME280;49289;51.670;5.624;2023-04-02T07:02:49;102038.73;;;10.60;56.77
63194;BME280;49289;51.670;5.624;2023-04-02T07:04:37;102038.97;;;10.97;56.21
63194;BME280;49289;51.670;5.624;2023-04-02T07:06:25;102065.13;;;11.01;56.20
63194;BME280;49289;51.670;5.624;2023-04-02T07:08:12;102069.63;;;10.78;56.17
63194;BME280;49289;51.670;5.624;2023-04-02T07:09:59;102076.07;;;11.23;55.90
63194;BME280;49289;51.670;5.624;2023-04-02T07:11:47;102063.66;;;11.07;55.64
63194;BME280;49289;51.670;5.624;2023-04-02T07:13:35;102099.94;;;10.74;55.87
63194;BME280;49289;51.670;5.624;2023-04-02T07:15:22;102098.31;;;11.01;55.63
63194;BME280;49289;51.670;5.624;2023-04-02T07:17:10;102102.50;;;10.85;55.55
63194;BME280;49289;51.670;5.624;2023-04-02T07:18:58;102093.88;;;10.41;56.25
63194;BME280;49289;51.670;5.624;2023-04-02T07:20:46;102114.46;;;10.85;56.21
63194;BME280;49289;51.670;5.624;2023-04-02T07:22:34;102116.88;;;10.52;56.18
63194;BME280;49289;51.670;5.624;2023-04-02T07:24:22;102114.13;;;11.02;56.02
63194;BME280;49289;51.670;5.624;2023-04-02T07:26:11;102115.64;;;10.66;55.64
63194;BME280;49289;51.670;5.624;2023-04-02T07:27:57;102102.19;;;10.58;55.94
63194;BME280;49289;51.670;5.624;2023-04-02T07:29:45;102116.77;;;10.70;55.64
63194;BME280;49289;51.670;5.624;2023-04-02T07:31:33;102127.77;;;10.90;55.06
63194;BME280;49289;51.670;5.624;2023-04-02T07:33:23;102120.05;;;11.21;54.78
63194;BME280;49289;51.670;5.624;2023-04-02T07:35:10;102136.85;;;10.87;55.41
63194;BME280;49289;51.670;5.624;2023-04-02T07:36:57;102124.58;;;10.79;54.94
63194;BME280;49289;51.670;5.624;2023-04-02T07:38:44;102139.92;;;11.34;54.64
63194;BME280;49289;51.670;5.624;2023-04-02T07:40:31;102123.99;;;11.27;54.89
63194;BME280;49289;51.670;5.624;2023-04-02T07:42:18;102139.68;;;11.52;54.17
63194;BME280;49289;51.670;5.624;2023-04-02T07:44:05;102139.53;;;11.37;54.20
63194;BME280;49289;51.670;5.624;2023-04-02T07:45:52;102128.41;;;11.20;54.19
63194;BME280;49289;51.670;5.624;2023-04-02T07:47:39;102127.86;;;10.85;54.68
63194;BME280;49289;51.670;5.624;2023-04-02T07:49:26;102149.86;;;10.66;55.32
63194;BME280;49289;51.670;5.624;2023-04-02T07:51:19;102152.74;;;10.82;55.21
63194;BME280;49289;51.670;5.624;2023-04-02T07:53:06;102136.34;;;10.83;55.33
63194;BME280;49289;51.670;5.624;2023-04-02T07:54:54;102160.49;;;10.75;54.94
63194;BME280;49289;51.670;5.624;2023-04-02T07:56:42;102155.49;;;11.44;54.63
63194;BME280;49289;51.670;5.624;2023-04-02T07:58:31;102145.52;;;10.84;54.44
63194;BME280;49289;51.670;5.624;2023-04-02T08:00:22;102170.38;;;10.97;55.10
63194;BME280;49289;51.670;5.624;2023-04-02T08:02:11;102168.53;;;10.92;54.82
63194;BME280;49289;51.670;5.624;2023-04-02T08:03:56;102176.28;;;11.11;54.66
63194;BME280;49289;51.670;5.624;2023-04-02T08:05:44;102175.38;;;11.35;54.66
63194;BME280;49289;51.670;5.624;2023-04-02T08:07:32;102186.72;;;11.00;55.19
63194;BME280;49289;51.670;5.624;2023-04-02T08:09:20;102180.89;;;11.47;54.55
63194;BME280;49289;51.670;5.624;2023-04-02T08:11:08;102182.06;;;11.34;54.82
63194;BME280;49289;51.670;5.624;2023-04-02T08:12:56;102190.84;;;11.75;53.58
63194;BME280;49289;51.670;5.624;2023-04-02T08:14:46;102191.88;;;11.06;53.96
63194;BME280;49289;51.670;5.624;2023-04-02T08:16:48;102175.03;;;11.33;54.11
63194;BME280;49289;51.670;5.624;2023-04-02T08:18:34;102182.04;;;11.32;53.78
63194;BME280;49289;51.670;5.624;2023-04-02T08:20:22;102201.84;;;11.25;53.89
63194;BME280;49289;51.670;5.624;2023-04-02T08:22:10;102201.95;;;11.77;53.41
63194;BME280;49289;51.670;5.624;2023-04-02T08:23:58;102206.78;;;11.72;53.47
63194;BME280;49289;51.670;5.624;2023-04-02T08:25:45;102205.66;;;11.82;53.32
63194;BME280;49289;51.670;5.624;2023-04-02T08:27:34;102205.08;;;11.84;52.94
63194;BME280;49289;51.670;5.624;2023-04-02T08:29:22;102215.11;;;11.77;53.20
63194;BME280;49289;51.670;5.624;2023-04-02T08:31:09;102216.48;;;11.72;53.07
63194;BME280;49289;51.670;5.624;2023-04-02T08:32:56;102201.27;;;11.39;53.31
63194;BME280;49289;51.670;5.624;2023-04-02T08:34:43;102208.17;;;11.63;53.12
63194;BME280;49289;51.670;5.624;2023-04-02T08:36:32;102215.52;;;11.56;52.60
63194;BME280;49289;51.670;5.624;2023-04-02T08:38:19;102215.77;;;11.59;52.69
63194;BME280;49289;51.670;5.624;2023-04-02T08:41:04;102253.27;;;11.21;53.49
63194;BME280;49289;51.670;5.624;2023-04-02T08:42:56;102235.18;;;11.01;54.04
63194;BME280;49289;51.670;5.624;2023-04-02T08:44:44;102259.48;;;11.50;53.96
63194;BME280;49289;51.670;5.624;2023-04-02T08:46:34;102263.05;;;11.59;53.13
63194;BME280;49289;51.670;5.624;2023-04-02T08:48:21;102270.31;;;11.08;53.72
63194;BME280;49289;51.670;5.624;2023-04-02T08:50:11;102275.25;;;10.57;54.21
63194;BME280;49289;51.670;5.624;2023-04-02T08:51:56;102271.13;;;11.39;53.92
63194;BME280;49289;51.670;5.624;2023-04-02T08:53:43;102255.20;;;10.80;53.83
63194;BME280;49289;51.670;5.624;2023-04-02T08:55:33;102254.84;;;11.04;54.18
63194;BME280;49289;51.670;5.624;2023-04-02T08:57:19;102278.31;;;11.42;53.78
63194;BME280;49289;51.670;5.624;2023-04-02T08:59:06;102284.15;;;11.30;53.64
63194;BME280;49289;51.670;5.624;2023-04-02T09:00:53;102296.66;;;10.87;54.83
63194;BME280;49289;51.670;5.624;2023-04-02T09:02:43;102278.94;;;11.28;53.75
63194;BME280;49289;51.670;5.624;2023-04-02T09:04:29;102298.18;;;10.96;54.21
63194;BME280;49289;51.670;5.624;2023-04-02T09:06:18;102282.47;;;10.59;54.72
63194;BME280;49289;51.670;5.624;2023-04-02T09:08:08;102301.64;;;10.93;54.75
63194;BME280;49289;51.670;5.624;2023-04-02T09:09:51;102304.58;;;11.19;54.19
63194;BME280;49289;51.670;5.624;2023-04-02T09:11:40;102292.50;;;11.06;54.48
63194;BME280;49289;51.670;5.624;2023-04-02T09:13:28;102308.66;;;11.25;53.89
63194;BME280;49289;51.670;5.624;2023-04-02T09:15:21;102318.27;;;11.29;54.34
63194;BME280;49289;51.670;5.624;2023-04-02T09:17:11;102299.91;;;11.19;54.41
63194;BME280;49289;51.670;5.624;2023-04-02T09:18:56;102306.40;;;11.15;53.65
63194;BME280;49289;51.670;5.624;2023-04-02T09:20:43;102321.53;;;11.30;53.96
63194;BME280;49289;51.670;5.624;2023-04-02T09:22:30;102316.39;;;11.46;53.97
63194;BME280;49289;51.670;5.624;2023-04-02T09:24:17;102319.18;;;11.05;53.51
63194;BME280;49289;51.670;5.624;2023-04-02T09:26:09;102313.91;;;10.67;54.51
63194;BME280;49289;51.670;5.624;2023-04-02T09:27:52;102333.73;;;11.28;53.76
63194;BME280;49289;51.670;5.624;2023-04-02T09:29:47;102327.58;;;10.62;53.84
63194;BME280;49289;51.670;5.624;2023-04-02T09:31:35;102350.20;;;10.62;54.53
63194;BME280;49289;51.670;5.624;2023-04-02T09:33:23;102345.61;;;11.16;54.35